createdAt,value
2023-04-20T00:02:18.101Z,102400.63
2023-04-20T00:04:45.192Z,102397.91
2023-04-20T00:07:11.695Z,102393.47
2023-04-20T00:09:38.394Z,102377.22
2023-04-20T00:12:05.104Z,102384.44
2023-04-20T00:14:31.574Z,102384.38
2023-04-20T00:16:58.033Z,102373.81
2023-04-20T00:19:26.102Z,102376.31
2023-04-20T00:21:52.991Z,102365.78
2023-04-20T00:24:19.514Z,102360.88
2023-04-20T00:26:45.951Z,102355.47
2023-04-20T00:29:12.508Z,102355.53
2023-04-20T00:31:38.977Z,102349.84
2023-04-20T00:34:05.540Z,102338.41
2023-04-20T00:36:32.155Z,102334.47
2023-04-20T00:38:59.216Z,102334.19
2023-04-20T00:41:25.708Z,102332.06
2023-04-20T00:43:53.551Z,102326.75
2023-04-20T00:46:21.783Z,102324.34
2023-04-20T00:48:51.798Z,102314.13
2023-04-20T00:51:19.388Z,102309.00
2023-04-20T00:53:46.032Z,102300.97
2023-04-20T00:56:14.449Z,102303.19
2023-04-20T00:58:44.125Z,102299.19
2023-04-20T01:01:11.721Z,102292.34
2023-04-20T01:03:39.735Z,102291.63
2023-04-20T01:06:07.389Z,102284.31
2023-04-20T01:08:33.803Z,102279.47
2023-04-20T01:11:00.296Z,102279.47
2023-04-20T01:13:27.077Z,102272.16
2023-04-20T01:15:53.792Z,102273.56
2023-04-20T01:18:20.502Z,102267.56
2023-04-20T01:20:47.944Z,102268.06
2023-04-20T01:23:14.472Z,102258.63
2023-04-20T01:25:41.706Z,102263.16
2023-04-20T01:28:09.358Z,102251.34
2023-04-20T01:30:37.820Z,102250.63
2023-04-20T01:33:04.396Z,102253.75
2023-04-20T01:35:30.991Z,102235.91
2023-04-20T01:37:57.949Z,102225.16
2023-04-20T01:40:24.487Z,102233.47
2023-04-20T01:42:50.965Z,102220.03
2023-04-20T01:45:17.440Z,102225.94
2023-04-20T01:47:43.904Z,102219.22
2023-04-20T01:50:10.740Z,102219.53
2023-04-20T01:52:37.289Z,102208.78
2023-04-20T01:55:04.004Z,102208.72
2023-04-20T01:57:30.511Z,102208.22
2023-04-20T01:59:56.967Z,102210.41
2023-04-20T02:02:23.570Z,102206.69
2023-04-20T02:04:50.446Z,102203.59
2023-04-20T02:07:17.023Z,102203.38
2023-04-20T02:09:43.515Z,102203.38
2023-04-20T02:12:09.964Z,102190.56
2023-04-20T02:14:36.430Z,102196.59
2023-04-20T02:17:03.495Z,102191.47
2023-04-20T02:19:30.061Z,102186.38
2023-04-20T02:21:56.596Z,102181.34
2023-04-20T02:24:23.119Z,102170.84
2023-04-20T02:26:49.650Z,102172.47
2023-04-20T02:29:16.687Z,102169.94
2023-04-20T02:31:43.446Z,102169.44
2023-04-20T02:34:10.754Z,102161.22
2023-04-20T02:36:37.317Z,102152.03
2023-04-20T02:39:04.468Z,102157.44
2023-04-20T02:41:31.029Z,102150.19
2023-04-20T02:43:57.505Z,102153.09
2023-04-20T02:46:24.035Z,102153.09
2023-04-20T02:48:50.599Z,102153.94
2023-04-20T02:51:17.054Z,102151.41
2023-04-20T02:53:43.552Z,102145.28
2023-04-20T02:56:10.066Z,102152.50
2023-04-20T02:58:36.567Z,102140.88
2023-04-20T03:01:04.204Z,102146.28
2023-04-20T03:03:31.149Z,102144.16
2023-04-20T03:05:58.208Z,102145.78
2023-04-20T03:08:24.733Z,102129.00
2023-04-20T03:10:51.192Z,102135.13
2023-04-20T03:13:17.663Z,102128.50
2023-04-20T03:15:44.148Z,102130.59
2023-04-20T03:18:10.787Z,102123.91
2023-04-20T03:20:37.378Z,102120.88
2023-04-20T03:23:03.867Z,102119.66
2023-04-20T03:25:30.367Z,102125.25
2023-04-20T03:27:56.865Z,102118.56
2023-04-20T03:30:23.496Z,102110.44
2023-04-20T03:32:49.977Z,102111.25
2023-04-20T03:35:17.667Z,102118.13
2023-04-20T03:37:44.261Z,102105.41
2023-04-20T03:40:11.257Z,102102.69
2023-04-20T03:42:37.828Z,102100.66
2023-04-20T03:45:06.348Z,102090.50
2023-04-20T03:47:33.292Z,102083.88
2023-04-20T03:49:59.883Z,102091.81
2023-04-20T03:52:26.428Z,102097.91
2023-04-20T03:54:52.910Z,102085.59
2023-04-20T03:57:19.578Z,102080.97
2023-04-20T03:59:46.152Z,102082.75
2023-04-20T04:02:13.574Z,102078.31
2023-04-20T04:04:41.385Z,102083.34
2023-04-20T04:07:08.130Z,102077.84
2023-04-20T04:09:34.594Z,102065.47
2023-04-20T04:12:01.371Z,102073.91
2023-04-20T04:14:28.869Z,102069.28
2023-04-20T04:16:56.114Z,102066.44
2023-04-20T04:19:22.637Z,102057.19
2023-04-20T04:21:49.086Z,102059.91
2023-04-20T04:24:16.804Z,102055.41
2023-04-20T04:26:43.484Z,102049.22
2023-04-20T04:29:10.528Z,102045.81
2023-04-20T04:31:36.989Z,102048.09
2023-04-20T04:34:03.784Z,102036.13
2023-04-20T04:36:30.246Z,102032.63
2023-04-20T04:38:56.722Z,102017.84
2023-04-20T04:41:23.507Z,102014.34
2023-04-20T04:43:49.966Z,102022.16
2023-04-20T04:46:16.462Z,102017.34
2023-04-20T04:48:43.478Z,102021.16
2023-04-20T04:51:10.097Z,102016.22
2023-04-20T04:53:36.941Z,102010.00
2023-04-20T04:56:04.625Z,102012.25
2023-04-20T04:58:31.367Z,102020.25
2023-04-20T05:00:57.870Z,102014.63
2023-04-20T05:03:24.508Z,102016.91
2023-04-20T05:05:51.069Z,102017.06
2023-04-20T05:08:17.570Z,102018.34
2023-04-20T05:10:44.015Z,102010.81
2023-04-20T05:13:10.466Z,102015.94
2023-04-20T05:15:36.931Z,102011.50
2023-04-20T05:18:03.513Z,102006.53
2023-04-20T05:20:30.047Z,102013.72
2023-04-20T05:22:56.587Z,102016.09
2023-04-20T05:25:23.348Z,102024.41
2023-04-20T05:27:49.867Z,102018.69
2023-04-20T05:30:21.506Z,102020.28
2023-04-20T05:32:51.135Z,102016.78
2023-04-20T05:35:18.906Z,102012.31
2023-04-20T05:37:45.383Z,102005.00
2023-04-20T05:40:12.062Z,101997.63
2023-04-20T05:42:38.824Z,102002.25
2023-04-20T05:45:05.922Z,102007.66
2023-04-20T05:47:32.402Z,102016.94
2023-04-20T05:49:59.397Z,102020.66
2023-04-20T05:52:25.858Z,102009.03
2023-04-20T05:54:52.885Z,102009.84
2023-04-20T05:57:19.357Z,102009.97
2023-04-20T05:59:46.689Z,102005.84
2023-04-20T06:02:13.238Z,102001.38
2023-04-20T06:04:39.939Z,102002.66
2023-04-20T06:07:06.461Z,101986.28
2023-04-20T06:09:32.900Z,101980.22
2023-04-20T06:12:00.730Z,101989.94
2023-04-20T06:14:27.194Z,101979.09
2023-04-20T06:16:53.671Z,101980.22
2023-04-20T06:19:20.231Z,101976.47
2023-04-20T06:21:46.997Z,101979.66
2023-04-20T06:24:13.449Z,101978.06
2023-04-20T06:26:39.900Z,101981.78
2023-04-20T06:29:06.385Z,101985.59
2023-04-20T06:31:32.897Z,101988.63
2023-04-20T06:33:59.496Z,101981.44
2023-04-20T06:36:27.702Z,101976.34
2023-04-20T06:38:54.967Z,101977.44
2023-04-20T06:41:21.455Z,101977.63
2023-04-20T06:43:47.904Z,101979.38
2023-04-20T06:46:14.531Z,101981.63
2023-04-20T06:48:41.245Z,101969.34
2023-04-20T06:51:07.851Z,101971.44
2023-04-20T06:53:34.995Z,101970.78
2023-04-20T06:56:01.526Z,101970.47
2023-04-20T06:58:27.997Z,101964.25
2023-04-20T07:00:54.493Z,101966.97
2023-04-20T07:03:21.282Z,101959.00
2023-04-20T07:05:47.907Z,101964.09
2023-04-20T07:08:16.074Z,101965.84
2023-04-20T07:10:42.754Z,101968.09
2023-04-20T07:13:09.401Z,101970.31
2023-04-20T07:15:35.928Z,101966.16
2023-04-20T07:18:02.808Z,101968.41
2023-04-20T07:20:29.244Z,101978.28
2023-04-20T07:22:55.804Z,101980.38
2023-04-20T07:25:23.125Z,101973.66
2023-04-20T07:27:49.630Z,101979.59
2023-04-20T07:30:16.129Z,101977.00
2023-04-20T07:32:42.675Z,101981.31
2023-04-20T07:35:10.304Z,101978.78
2023-04-20T07:37:37.001Z,101976.53
2023-04-20T07:40:06.570Z,101971.41
2023-04-20T07:42:34.852Z,101983.88
2023-04-20T07:45:01.645Z,101983.41
2023-04-20T07:47:28.202Z,101979.25
2023-04-20T07:49:54.901Z,101984.19
2023-04-20T07:52:21.457Z,101969.84
2023-04-20T07:54:48.002Z,101973.66
2023-04-20T07:57:15.166Z,101974.16
2023-04-20T07:59:41.709Z,101972.72
2023-04-20T08:02:09.012Z,101979.59
2023-04-20T08:04:39.137Z,101969.53
2023-04-20T08:07:05.944Z,101966.00
2023-04-20T08:09:32.437Z,101977.31
2023-04-20T08:11:59.015Z,101972.41
2023-04-20T08:14:25.505Z,101959.69
2023-04-20T08:16:52.105Z,101959.50
2023-04-20T08:19:18.610Z,101951.41
2023-04-20T08:21:45.208Z,101954.34
2023-04-20T08:24:13.226Z,101947.75
2023-04-20T08:26:39.922Z,101950.22
2023-04-20T08:29:06.475Z,101948.16
2023-04-20T08:31:33.046Z,101941.47
2023-04-20T08:33:59.618Z,101943.25
2023-04-20T08:36:26.670Z,101946.13
2023-04-20T08:39:11.544Z,101945.06
2023-04-20T08:41:38.182Z,101935.72
2023-04-20T08:44:04.990Z,101933.75
2023-04-20T08:46:33.409Z,101936.69
2023-04-20T08:49:02.389Z,101943.50
2023-04-20T08:51:29.142Z,101943.16
2023-04-20T08:53:56.664Z,101939.38
2023-04-20T08:56:43.936Z,101939.91
2023-04-20T08:59:12.807Z,101933.00
2023-04-20T09:01:43.012Z,101924.34
2023-04-20T09:04:21.559Z,101917.31
2023-04-20T09:06:50.631Z,101927.13
2023-04-20T09:09:18.624Z,101924.91
2023-04-20T09:11:46.016Z,101923.19
2023-04-20T09:14:15.208Z,101923.50
2023-04-20T09:16:52.844Z,101930.75
2023-04-20T09:19:26.789Z,101939.16
2023-04-20T09:21:55.684Z,101933.41
2023-04-20T09:24:23.528Z,101925.94
2023-04-20T09:26:50.092Z,101920.78
2023-04-20T09:29:18.829Z,101925.72
2023-04-20T09:31:45.597Z,101926.41
2023-04-20T09:34:12.633Z,101925.50
2023-04-20T09:36:43.669Z,101910.38
2023-04-20T09:39:21.952Z,101915.22
2023-04-20T09:41:50.517Z,101920.84
2023-04-20T09:44:18.414Z,101910.66
2023-04-20T09:46:45.600Z,101905.94
2023-04-20T09:49:14.054Z,101909.78
2023-04-20T09:51:45.169Z,101917.47
2023-04-20T09:54:12.639Z,101914.69
2023-04-20T09:56:40.013Z,101906.84
2023-04-20T09:59:07.976Z,101899.66
2023-04-20T10:01:36.606Z,101896.75
2023-04-20T10:04:06.719Z,101895.00
2023-04-20T10:06:35.389Z,101895.47
2023-04-20T10:09:05.450Z,101895.03
2023-04-20T10:11:48.942Z,101900.41
2023-04-20T10:14:24.434Z,101895.34
2023-04-20T10:17:01.562Z,101891.09
2023-04-20T10:19:42.606Z,101886.66
2023-04-20T10:22:10.569Z,101889.25
2023-04-20T10:24:40.185Z,101895.66
2023-04-20T10:27:20.358Z,101888.06
2023-04-20T10:29:47.014Z,101896.41
2023-04-20T10:32:28.276Z,101887.03
2023-04-20T10:35:06.790Z,101876.13
2023-04-20T10:37:34.100Z,101879.13
2023-04-20T10:40:01.089Z,101874.16
2023-04-20T10:42:29.509Z,101873.31
2023-04-20T10:44:56.407Z,101874.59
2023-04-20T10:47:31.477Z,101861.28
2023-04-20T10:50:15.055Z,101861.66
2023-04-20T10:52:43.389Z,101868.81
2023-04-20T10:55:25.024Z,101866.75
2023-04-20T10:57:51.997Z,101861.56
2023-04-20T11:00:20.900Z,101850.19
2023-04-20T11:02:51.988Z,101856.63
2023-04-20T11:05:20.364Z,101839.56
2023-04-20T11:07:50.726Z,101842.22
2023-04-20T11:10:17.337Z,101841.66
2023-04-20T11:12:43.915Z,101840.19
2023-04-20T11:15:10.577Z,101831.88
2023-04-20T11:17:39.320Z,101841.50
2023-04-20T11:20:16.363Z,101844.06
2023-04-20T11:22:43.689Z,101837.19
2023-04-20T11:25:11.919Z,101835.28
2023-04-20T11:27:39.456Z,101839.16
2023-04-20T11:30:07.866Z,101827.41
2023-04-20T11:32:36.049Z,101832.44
2023-04-20T11:35:07.822Z,101827.53
2023-04-20T11:37:47.165Z,101827.66
2023-04-20T11:40:15.052Z,101821.53
2023-04-20T11:42:41.634Z,101817.06
2023-04-20T11:45:08.634Z,101813.03
2023-04-20T11:47:35.152Z,101809.34
2023-04-20T11:50:01.621Z,101811.16
2023-04-20T11:52:28.115Z,101802.53
2023-04-20T11:54:54.694Z,101802.41
2023-04-20T11:57:23.724Z,101807.91
2023-04-20T11:59:50.252Z,101817.75
2023-04-20T12:02:16.990Z,101819.25
2023-04-20T12:04:44.172Z,101821.31
2023-04-20T12:07:11.039Z,101817.56
2023-04-20T12:09:38.381Z,101816.28
2023-04-20T12:12:05.791Z,101824.06
2023-04-20T12:14:35.785Z,101817.44
2023-04-20T12:17:03.932Z,101815.25
2023-04-20T12:19:31.112Z,101817.59
2023-04-20T12:21:57.688Z,101811.84
2023-04-20T12:24:24.441Z,101817.19
2023-04-20T12:26:50.976Z,101809.75
2023-04-20T12:29:17.623Z,101815.53
2023-04-20T12:31:44.347Z,101806.78
2023-04-20T12:34:11.289Z,101808.38
2023-04-20T12:36:37.865Z,101808.81
2023-04-20T12:39:04.475Z,101814.50
2023-04-20T12:41:31.436Z,101812.81
2023-04-20T12:43:57.902Z,101804.28
2023-04-20T12:46:25.424Z,101804.19
2023-04-20T12:48:52.130Z,101804.06
2023-04-20T12:51:18.738Z,101801.81
2023-04-20T12:53:45.337Z,101798.72
2023-04-20T12:56:11.864Z,101800.66
2023-04-20T12:58:38.324Z,101799.13
2023-04-20T13:01:04.837Z,101791.66
2023-04-20T13:03:31.574Z,101796.56
2023-04-20T13:05:59.975Z,101793.69
2023-04-20T13:08:26.824Z,101791.09
2023-04-20T13:10:53.374Z,101790.66
2023-04-20T13:13:19.921Z,101789.25
2023-04-20T13:15:46.598Z,101794.03
2023-04-20T13:18:15.182Z,101795.81
2023-04-20T13:20:41.676Z,101787.88
2023-04-20T13:23:08.265Z,101791.38
2023-04-20T13:25:34.857Z,101786.63
2023-04-20T13:28:03.102Z,101789.81
2023-04-20T13:30:29.675Z,101787.34
2023-04-20T13:32:56.538Z,101797.66
2023-04-20T13:35:24.164Z,101786.63
2023-04-20T13:37:50.884Z,101779.47
2023-04-20T13:40:17.510Z,101786.63
2023-04-20T13:42:44.065Z,101777.22
2023-04-20T13:45:11.689Z,101782.66
2023-04-20T13:47:39.585Z,101769.94
2023-04-20T13:50:07.466Z,101777.94
2023-04-20T13:52:34.037Z,101766.91
2023-04-20T13:55:00.548Z,101764.50
2023-04-20T13:57:27.112Z,101765.50
2023-04-20T13:59:53.699Z,101768.63
2023-04-20T14:02:20.444Z,101755.28
2023-04-20T14:04:47.029Z,101745.59
2023-04-20T14:07:13.618Z,101750.25
2023-04-20T14:09:40.130Z,101742.06
2023-04-20T14:12:06.679Z,101743.81
2023-04-20T14:14:33.311Z,101750.47
2023-04-20T14:16:59.818Z,101750.59
2023-04-20T14:19:26.383Z,101758.19
2023-04-20T14:21:52.824Z,101751.41
2023-04-20T14:24:19.721Z,101752.53
2023-04-20T14:26:46.480Z,101739.47
2023-04-20T14:29:13.066Z,101735.94
2023-04-20T14:31:39.538Z,101747.81
2023-04-20T14:34:06.208Z,101748.72
2023-04-20T14:36:33.269Z,101747.94
2023-04-20T14:38:59.762Z,101736.53
2023-04-20T14:41:26.409Z,101743.75
2023-04-20T14:43:52.935Z,101733.78
2023-04-20T14:46:19.517Z,101737.44
2023-04-20T14:48:46.382Z,101742.47
2023-04-20T14:51:13.569Z,101734.34
2023-04-20T14:53:40.178Z,101727.31
2023-04-20T14:56:06.917Z,101735.13
2023-04-20T14:58:33.744Z,101731.16
2023-04-20T15:01:00.733Z,101732.13
2023-04-20T15:03:27.487Z,101724.03
2023-04-20T15:06:00.298Z,101731.78
2023-04-20T15:08:27.290Z,101727.38
2023-04-20T15:10:56.631Z,101724.88
2023-04-20T15:13:26.302Z,101712.78
2023-04-20T15:15:55.052Z,101715.91
2023-04-20T15:18:22.014Z,101713.06
2023-04-20T15:20:51.334Z,101709.81
2023-04-20T15:23:17.990Z,101715.66
2023-04-20T15:25:44.569Z,101713.44
2023-04-20T15:28:11.255Z,101715.38
2023-04-20T15:30:37.748Z,101706.69
2023-04-20T15:33:05.588Z,101710.31
2023-04-20T15:35:33.207Z,101712.84
2023-04-20T15:37:59.705Z,101708.50
2023-04-20T15:40:27.489Z,101707.59
2023-04-20T15:42:57.540Z,101699.94
2023-04-20T15:45:24.748Z,101703.50
2023-04-20T15:47:51.663Z,101693.22
2023-04-20T15:50:18.560Z,101693.75
2023-04-20T15:52:45.769Z,101694.59
2023-04-20T15:55:12.621Z,101690.66
2023-04-20T15:57:39.464Z,101703.78
2023-04-20T16:00:07.795Z,101703.25
2023-04-20T16:02:34.536Z,101708.41
2023-04-20T16:05:01.626Z,101696.84
2023-04-20T16:07:28.520Z,101706.59
2023-04-20T16:09:55.041Z,101697.78
2023-04-20T16:12:21.536Z,101699.09
2023-04-20T16:14:49.477Z,101698.44
2023-04-20T16:17:16.975Z,101696.00
2023-04-20T16:19:43.493Z,101700.34
2023-04-20T16:22:09.990Z,101691.41
2023-04-20T16:24:36.492Z,101694.69
2023-04-20T16:27:02.973Z,101693.63
2023-04-20T16:29:29.497Z,101690.84
2023-04-20T16:31:56.432Z,101698.78
2023-04-20T16:34:24.411Z,101706.88
2023-04-20T16:36:50.949Z,101701.66
2023-04-20T16:39:18.560Z,101704.16
2023-04-20T16:41:45.115Z,101702.97
2023-04-20T16:44:13.668Z,101697.84
2023-04-20T16:46:42.026Z,101704.19
2023-04-20T16:49:09.159Z,101697.94
2023-04-20T16:51:35.805Z,101703.97
2023-04-20T16:54:02.431Z,101689.72
2023-04-20T16:56:28.996Z,101685.88
2023-04-20T16:58:55.603Z,101686.69
2023-04-20T17:01:22.514Z,101690.00
2023-04-20T17:03:49.324Z,101681.13
2023-04-20T17:06:16.043Z,101688.28
2023-04-20T17:08:42.635Z,101695.56
2023-04-20T17:11:09.093Z,101697.06
2023-04-20T17:13:35.578Z,101694.00
2023-04-20T17:16:02.068Z,101695.28
2023-04-20T17:18:28.675Z,101697.91
2023-04-20T17:20:57.463Z,101701.91
2023-04-20T17:23:24.097Z,101695.91
2023-04-20T17:25:51.338Z,101699.97
2023-04-20T17:28:18.066Z,101693.00
2023-04-20T17:30:44.918Z,101696.16
2023-04-20T17:33:14.827Z,101696.16
2023-04-20T17:35:41.394Z,101697.50
2023-04-20T17:38:07.878Z,101690.25
2023-04-20T17:40:34.898Z,101696.94
2023-04-20T17:43:02.140Z,101700.16
2023-04-20T17:45:28.725Z,101701.47
2023-04-20T17:47:55.719Z,101705.06
2023-04-20T17:50:22.694Z,101701.94
2023-04-20T17:52:49.408Z,101703.16
2023-04-20T17:55:15.962Z,101715.50
2023-04-20T17:57:42.452Z,101722.19
2023-04-20T18:00:11.594Z,101728.72
2023-04-20T18:02:38.536Z,101728.38
2023-04-20T18:05:06.259Z,101728.88
2023-04-20T18:07:32.910Z,101726.75
2023-04-20T18:09:59.419Z,101723.69
2023-04-20T18:12:26.075Z,101730.63
2023-04-20T18:14:52.676Z,101731.06
2023-04-20T18:17:19.143Z,101725.25
2023-04-20T18:19:46.083Z,101731.16
2023-04-20T18:22:12.827Z,101725.66
2023-04-20T18:24:39.400Z,101731.59
2023-04-20T18:27:05.970Z,101725.97
2023-04-20T18:29:32.463Z,101727.13
2023-04-20T18:32:01.169Z,101726.13
2023-04-20T18:34:31.179Z,101720.38
2023-04-20T18:36:58.229Z,101728.13
2023-04-20T18:39:25.719Z,101733.72
2023-04-20T18:41:52.364Z,101733.50
2023-04-20T18:44:19.466Z,101727.16
2023-04-20T18:46:46.644Z,101739.66
2023-04-20T18:49:13.431Z,101741.03
2023-04-20T18:51:40.163Z,101733.06
2023-04-20T18:54:06.934Z,101742.97
2023-04-20T18:56:33.856Z,101731.16
2023-04-20T18:59:01.520Z,101725.13
2023-04-20T19:01:28.582Z,101740.69
2023-04-20T19:03:55.665Z,101746.25
2023-04-20T19:06:22.454Z,101754.41
2023-04-20T19:08:50.900Z,101747.38
2023-04-20T19:11:17.409Z,101755.66
2023-04-20T19:13:45.319Z,101755.75
2023-04-20T19:16:13.183Z,101752.69
2023-04-20T19:18:40.208Z,101754.75
2023-04-20T19:21:06.789Z,101760.41
2023-04-20T19:23:35.670Z,101754.75
2023-04-20T19:26:02.592Z,101751.91
2023-04-20T19:28:29.124Z,101753.47
2023-04-20T19:30:55.950Z,101751.56
2023-04-20T19:33:22.532Z,101752.88
2023-04-20T19:35:50.850Z,101747.44
2023-04-20T19:38:18.856Z,101738.81
2023-04-20T19:40:45.847Z,101742.97
2023-04-20T19:43:12.491Z,101752.97
2023-04-20T19:45:39.695Z,101753.66
2023-04-20T19:48:06.447Z,101762.38
2023-04-20T19:50:33.193Z,101755.25
2023-04-20T19:53:00.005Z,101750.00
2023-04-20T19:55:26.500Z,101756.69
2023-04-20T19:57:52.989Z,101752.38
2023-04-20T20:00:19.496Z,101755.97
2023-04-20T20:02:46.218Z,101758.94
2023-04-20T20:05:12.962Z,101772.03
2023-04-20T20:07:39.462Z,101764.00
2023-04-20T20:10:06.464Z,101758.84
2023-04-20T20:12:33.104Z,101763.47
2023-04-20T20:14:59.779Z,101776.47
2023-04-20T20:17:26.288Z,101767.72
2023-04-20T20:19:53.741Z,101754.25
2023-04-20T20:22:20.912Z,101753.97
2023-04-20T20:24:47.922Z,101750.63
2023-04-20T20:27:14.480Z,101745.25
2023-04-20T20:29:40.983Z,101734.38
2023-04-20T20:32:07.451Z,101742.31
2023-04-20T20:34:33.937Z,101740.59
2023-04-20T20:37:00.439Z,101733.88
2023-04-20T20:39:27.122Z,101722.09
2023-04-20T20:41:53.843Z,101730.94
2023-04-20T20:44:20.744Z,101738.59
2023-04-20T20:46:47.605Z,101732.91
2023-04-20T20:49:14.248Z,101732.91
2023-04-20T20:51:41.461Z,101730.03
2023-04-20T20:54:07.960Z,101727.13
2023-04-20T20:56:34.424Z,101726.66
2023-04-20T20:59:01.068Z,101721.59
2023-04-20T21:01:27.680Z,101723.84
2023-04-20T21:03:54.541Z,101720.66
2023-04-20T21:06:21.260Z,101724.50
2023-04-20T21:08:48.669Z,101729.50
2023-04-20T21:11:15.125Z,101716.22
2023-04-20T21:13:41.618Z,101714.16
2023-04-20T21:16:08.204Z,101707.75
2023-04-20T21:18:34.758Z,101704.41
2023-04-20T21:21:01.215Z,101706.69
2023-04-20T21:23:27.696Z,101710.19
2023-04-20T21:25:54.256Z,101713.75
2023-04-20T21:28:20.723Z,101704.16
2023-04-20T21:30:47.158Z,101703.81
2023-04-20T21:33:13.634Z,101707.53
2023-04-20T21:35:40.084Z,101690.44
2023-04-20T21:38:06.555Z,101688.38
2023-04-20T21:40:34.204Z,101689.69
2023-04-20T21:43:00.965Z,101704.25
2023-04-20T21:45:27.418Z,101703.06
2023-04-20T21:47:55.385Z,101708.38
2023-04-20T21:50:26.890Z,101703.91
2023-04-20T21:52:54.792Z,101716.25
2023-04-20T21:55:21.539Z,101717.16
2023-04-20T21:57:48.225Z,101718.34
2023-04-20T22:00:15.509Z,101733.06
2023-04-20T22:02:43.370Z,101738.03
2023-04-20T22:05:10.288Z,101733.06
2023-04-20T22:07:37.462Z,101738.47
2023-04-20T22:10:04.795Z,101722.84
2023-04-20T22:12:39.436Z,101730.22
2023-04-20T22:15:11.803Z,101727.16
2023-04-20T22:17:38.331Z,101730.25
2023-04-20T22:20:07.891Z,101735.69
2023-04-20T22:22:38.073Z,101733.13
2023-04-20T22:25:05.962Z,101733.63
2023-04-20T22:27:33.901Z,101736.00
2023-04-20T22:30:00.749Z,101726.44
2023-04-20T22:32:27.528Z,101728.72
2023-04-20T22:34:54.014Z,101724.91
2023-04-20T22:37:20.511Z,101722.53
2023-04-20T22:39:47.007Z,101717.09
2023-04-20T22:42:13.485Z,101719.34
2023-04-20T22:44:39.995Z,101705.47
2023-04-20T22:47:06.519Z,101705.97
2023-04-20T22:49:33.112Z,101703.06
2023-04-20T22:51:59.556Z,101702.44
2023-04-20T22:54:26.109Z,101691.59
2023-04-20T22:56:52.990Z,101702.28
2023-04-20T22:59:19.910Z,101700.88
2023-04-20T23:01:46.769Z,101690.03
2023-04-20T23:04:13.344Z,101689.25
2023-04-20T23:06:43.643Z,101681.44
2023-04-20T23:09:11.657Z,101675.34
2023-04-20T23:11:43.302Z,101681.47
2023-04-20T23:14:09.756Z,101672.31
2023-04-20T23:16:36.288Z,101663.72
2023-04-20T23:19:02.805Z,101655.94
2023-04-20T23:21:29.280Z,101655.94
2023-04-20T23:23:57.649Z,101638.22
2023-04-20T23:26:24.757Z,101622.06
2023-04-20T23:28:52.561Z,101609.31
2023-04-20T23:31:20.023Z,101614.94
2023-04-20T23:33:46.904Z,101606.94
2023-04-20T23:36:13.447Z,101616.22
2023-04-20T23:38:40.345Z,101607.47
2023-04-20T23:41:14.652Z,101609.41
2023-04-20T23:43:41.782Z,101609.69
2023-04-20T23:46:08.646Z,101615.44
2023-04-20T23:48:35.314Z,101622.66
2023-04-20T23:51:01.990Z,101624.88
2023-04-20T23:53:28.644Z,101621.38
2023-04-20T23:55:55.703Z,101626.31
2023-04-20T23:58:26.297Z,101628.91
